sensor_id;sensor_type;location;lat;lon;timestamp;temperature;humidity
9410;DHT22;4744;52.576;13.568;2023-10-13T00:00:50;13.40;1.00
9410;DHT22;4744;52.576;13.568;2023-10-13T00:03:23;13.40;1.00
9410;DHT22;4744;52.576;13.568;2023-10-13T00:05:51;13.40;1.00
9410;DHT22;4744;52.576;13.568;2023-10-13T00:08:18;13.40;1.00
9410;DHT22;4744;52.576;13.568;2023-10-13T00:10:46;13.40;1.00
9410;DHT22;4744;52.576;13.568;2023-10-13T00:13:14;13.40;1.00
9410;DHT22;4744;52.576;13.568;2023-10-13T00:15:44;13.40;1.00
9410;DHT22;4744;52.576;13.568;2023-10-13T00:18:22;13.40;1.00
9410;DHT22;4744;52.576;13.568;2023-10-13T00:20:52;13.40;1.00
9410;DHT22;4744;52.576;13.568;2023-10-13T00:23:22;13.40;1.00
9410;DHT22;4744;52.576;13.568;2023-10-13T00:25:52;13.40;1.00
9410;DHT22;4744;52.576;13.568;2023-10-13T00:28:26;13.40;1.00
9410;DHT22;4744;52.576;13.568;2023-10-13T00:31:02;13.40;1.00
9410;DHT22;4744;52.576;13.568;2023-10-13T00:33:36;13.40;1.00
9410;DHT22;4744;52.576;13.568;2023-10-13T00:36:03;13.40;1.00
9410;DHT22;4744;52.576;13.568;2023-10-13T00:38:30;13.40;1.00
9410;DHT22;4744;52.576;13.568;2023-10-13T00:41:00;13.40;1.00
9410;DHT22;4744;52.576;13.568;2023-10-13T00:43:44;13.40;1.00
9410;DHT22;4744;52.576;13.568;2023-10-13T00:46:31;13.40;1.00
9410;DHT22;4744;52.576;13.568;2023-10-13T00:48:59;13.40;1.00
9410;DHT22;4744;52.576;13.568;2023-10-13T00:51:27;13.40;1.00
9410;DHT22;4744;52.576;13.568;2023-10-13T00:53:59;13.40;1.00
9410;DHT22;4744;52.576;13.568;2023-10-13T00:56:28;13.40;1.00
9410;DHT22;4744;52.576;13.568;2023-10-13T00:58:57;13.40;1.00
9410;DHT22;4744;52.576;13.568;2023-10-13T01:01:27;13.40;1.00
9410;DHT22;4744;52.576;13.568;2023-10-13T01:04:00;13.40;1.00
9410;DHT22;4744;52.576;13.568;2023-10-13T01:06:28;13.40;1.00
9410;DHT22;4744;52.576;13.568;2023-10-13T01:09:00;13.40;1.00
9410;DHT22;4744;52.576;13.568;2023-10-13T01:11:37;13.30;1.00
9410;DHT22;4744;52.576;13.568;2023-10-13T01:14:04;13.30;1.00
9410;DHT22;4744;52.576;13.568;2023-10-13T01:16:31;13.30;1.00
9410;DHT22;4744;52.576;13.568;2023-10-13T01:18:59;13.30;1.00
9410;DHT22;4744;52.576;13.568;2023-10-13T01:21:30;13.30;1.00
9410;DHT22;4744;52.576;13.568;2023-10-13T01:24:00;13.30;1.00
9410;DHT22;4744;52.576;13.568;2023-10-13T01:26:27;13.40;1.00
9410;DHT22;4744;52.576;13.568;2023-10-13T01:28:57;13.30;1.00
9410;DHT22;4744;52.576;13.568;2023-10-13T01:31:23;13.30;1.00
9410;DHT22;4744;52.576;13.568;2023-10-13T01:33:55;13.30;1.00
9410;DHT22;4744;52.576;13.568;2023-10-13T01:36:24;13.30;1.00
9410;DHT22;4744;52.576;13.568;2023-10-13T01:38:52;13.40;1.00
9410;DHT22;4744;52.576;13.568;2023-10-13T01:41:20;13.30;1.00
9410;DHT22;4744;52.576;13.568;2023-10-13T01:43:48;13.30;1.00
9410;DHT22;4744;52.576;13.568;2023-10-13T01:46:14;13.30;1.00
9410;DHT22;4744;52.576;13.568;2023-10-13T01:48:45;13.30;1.00
9410;DHT22;4744;52.576;13.568;2023-10-13T01:51:12;13.30;1.00
9410;DHT22;4744;52.576;13.568;2023-10-13T01:53:40;13.30;1.00
9410;DHT22;4744;52.576;13.568;2023-10-13T01:56:08;13.30;1.00
9410;DHT22;4744;52.576;13.568;2023-10-13T01:58:41;13.30;1.00
9410;DHT22;4744;52.576;13.568;2023-10-13T02:01:08;13.30;1.00
9410;DHT22;4744;52.576;13.568;2023-10-13T02:03:36;13.30;1.00
9410;DHT22;4744;52.576;13.568;2023-10-13T02:06:07;13.20;1.00
9410;DHT22;4744;52.576;13.568;2023-10-13T02:08:36;13.30;1.00
9410;DHT22;4744;52.576;13.568;2023-10-13T02:11:08;13.30;1.00
9410;DHT22;4744;52.576;13.568;2023-10-13T02:13:35;13.40;1.00
9410;DHT22;4744;52.576;13.568;2023-10-13T02:16:08;13.40;1.00
9410;DHT22;4744;52.576;13.568;2023-10-13T02:18:37;13.30;1.00
9410;DHT22;4744;52.576;13.568;2023-10-13T02:21:07;13.20;1.00
9410;DHT22;4744;52.576;13.568;2023-10-13T02:23:39;13.30;1.00
9410;DHT22;4744;52.576;13.568;2023-10-13T02:26:11;13.30;1.00
9410;DHT22;4744;52.576;13.568;2023-10-13T02:28:40;13.30;1.00
9410;DHT22;4744;52.576;13.568;2023-10-13T02:31:08;13.30;1.00
9410;DHT22;4744;52.576;13.568;2023-10-13T02:33:35;13.30;1.00
9410;DHT22;4744;52.576;13.568;2023-10-13T02:36:10;13.20;1.00
9410;DHT22;4744;52.576;13.568;2023-10-13T02:38:38;13.20;1.00
9410;DHT22;4744;52.576;13.568;2023-10-13T02:41:11;13.30;1.00
9410;DHT22;4744;52.576;13.568;2023-10-13T02:43:44;13.20;1.00
9410;DHT22;4744;52.576;13.568;2023-10-13T02:46:11;13.20;1.00
9410;DHT22;4744;52.576;13.568;2023-10-13T02:48:41;13.20;1.00
9410;DHT22;4744;52.576;13.568;2023-10-13T02:51:08;13.20;1.00
9410;DHT22;4744;52.576;13.568;2023-10-13T02:53:42;13.20;1.00
9410;DHT22;4744;52.576;13.568;2023-10-13T02:56:12;13.20;1.00
9410;DHT22;4744;52.576;13.568;2023-10-13T02:58:40;13.20;1.00
9410;DHT22;4744;52.576;13.568;2023-10-13T03:01:12;13.20;1.00
9410;DHT22;4744;52.576;13.568;2023-10-13T03:03:48;13.30;1.00
9410;DHT22;4744;52.576;13.568;2023-10-13T03:06:17;13.30;1.00
9410;DHT22;4744;52.576;13.568;2023-10-13T03:08:47;13.20;1.00
9410;DHT22;4744;52.576;13.568;2023-10-13T03:11:13;13.30;1.00
9410;DHT22;4744;52.576;13.568;2023-10-13T03:13:42;13.40;1.00
9410;DHT22;4744;52.576;13.568;2023-10-13T03:16:18;13.30;1.00
9410;DHT22;4744;52.576;13.568;2023-10-13T03:18:46;13.30;1.00
9410;DHT22;4744;52.576;13.568;2023-10-13T03:21:20;13.30;1.00
9410;DHT22;4744;52.576;13.568;2023-10-13T03:23:57;13.40;1.00
9410;DHT22;4744;52.576;13.568;2023-10-13T03:26:30;13.40;1.00
9410;DHT22;4744;52.576;13.568;2023-10-13T03:29:01;13.40;1.00
9410;DHT22;4744;52.576;13.568;2023-10-13T03:31:30;13.40;1.00
9410;DHT22;4744;52.576;13.568;2023-10-13T03:34:03;13.30;1.00
9410;DHT22;4744;52.576;13.568;2023-10-13T03:36:35;13.40;1.00
9410;DHT22;4744;52.576;13.568;2023-10-13T03:39:16;13.30;1.00
9410;DHT22;4744;52.576;13.568;2023-10-13T03:41:43;13.40;1.00
9410;DHT22;4744;52.576;13.568;2023-10-13T03:44:11;13.40;1.00
9410;DHT22;4744;52.576;13.568;2023-10-13T03:46:45;13.40;1.00
9410;DHT22;4744;52.576;13.568;2023-10-13T03:49:14;13.40;1.00
9410;DHT22;4744;52.576;13.568;2023-10-13T03:51:41;13.40;1.00
9410;DHT22;4744;52.576;13.568;2023-10-13T03:54:09;13.50;1.00
9410;DHT22;4744;52.576;13.568;2023-10-13T03:56:36;13.40;1.00
9410;DHT22;4744;52.576;13.568;2023-10-13T03:59:07;13.40;1.00
9410;DHT22;4744;52.576;13.568;2023-10-13T04:01:36;13.40;1.00
9410;DHT22;4744;52.576;13.568;2023-10-13T04:04:15;13.50;1.00
9410;DHT22;4744;52.576;13.568;2023-10-13T04:06:55;13.50;1.00
9410;DHT22;4744;52.576;13.568;2023-10-13T04:09:39;13.50;1.00
9410;DHT22;4744;52.576;13.568;2023-10-13T04:12:40;13.50;1.00
9410;DHT22;4744;52.576;13.568;2023-10-13T04:15:24;13.50;1.00
9410;DHT22;4744;52.576;13.568;2023-10-13T04:18:02;13.50;1.00
9410;DHT22;4744;52.576;13.568;2023-10-13T04:20:41;13.50;1.00
9410;DHT22;4744;52.576;13.568;2023-10-13T04:23:12;13.50;1.00
9410;DHT22;4744;52.576;13.568;2023-10-13T04:25:45;13.50;1.00
9410;DHT22;4744;52.576;13.568;2023-10-13T04:28:38;13.60;1.00
9410;DHT22;4744;52.576;13.568;2023-10-13T04:31:16;13.60;1.00
9410;DHT22;4744;52.576;13.568;2023-10-13T04:33:50;13.60;1.00
9410;DHT22;4744;52.576;13.568;2023-10-13T04:36:29;13.70;1.00
9410;DHT22;4744;52.576;13.568;2023-10-13T04:39:10;13.70;1.00
9410;DHT22;4744;52.576;13.568;2023-10-13T04:41:42;13.80;1.00
9410;DHT22;4744;52.576;13.568;2023-10-13T04:44:09;13.80;1.00
9410;DHT22;4744;52.576;13.568;2023-10-13T04:47:08;13.80;1.00
9410;DHT22;4744;52.576;13.568;2023-10-13T04:49:43;13.80;1.00
9410;DHT22;4744;52.576;13.568;2023-10-13T04:52:19;13.80;1.00
9410;DHT22;4744;52.576;13.568;2023-10-13T04:55:11;13.80;1.00
9410;DHT22;4744;52.576;13.568;2023-10-13T04:57:59;13.80;1.00
9410;DHT22;4744;52.576;13.568;2023-10-13T05:00:36;13.80;1.00
9410;DHT22;4744;52.576;13.568;2023-10-13T05:03:21;13.90;1.00
9410;DHT22;4744;52.576;13.568;2023-10-13T05:06:18;13.90;1.00
9410;DHT22;4744;52.576;13.568;2023-10-13T05:09:04;13.90;1.00
9410;DHT22;4744;52.576;13.568;2023-10-13T05:11:46;13.90;1.00
9410;DHT22;4744;52.576;13.568;2023-10-13T05:14:31;14.00;1.00
9410;DHT22;4744;52.576;13.568;2023-10-13T05:17:14;13.90;1.00
9410;DHT22;4744;52.576;13.568;2023-10-13T05:19:59;14.00;1.00
9410;DHT22;4744;52.576;13.568;2023-10-13T05:22:43;14.00;1.00
9410;DHT22;4744;52.576;13.568;2023-10-13T05:25:28;14.00;1.00
9410;DHT22;4744;52.576;13.568;2023-10-13T05:28:13;14.00;1.00
9410;DHT22;4744;52.576;13.568;2023-10-13T05:30:59;14.00;1.00
9410;DHT22;4744;52.576;13.568;2023-10-13T05:33:43;14.10;1.00
9410;DHT22;4744;52.576;13.568;2023-10-13T05:36:27;14.10;1.00
9410;DHT22;4744;52.576;13.568;2023-10-13T05:39:12;14.20;1.00
9410;DHT22;4744;52.576;13.568;2023-10-13T05:41:57;14.20;1.00
9410;DHT22;4744;52.576;13.568;2023-10-13T05:44:42;14.20;1.00
9410;DHT22;4744;52.576;13.568;2023-10-13T05:47:22;14.20;1.00
9410;DHT22;4744;52.576;13.568;2023-10-13T05:50:07;14.20;1.00
9410;DHT22;4744;52.576;13.568;2023-10-13T05:52:54;14.20;1.00
9410;DHT22;4744;52.576;13.568;2023-10-13T05:55:39;14.20;1.00
9410;DHT22;4744;52.576;13.568;2023-10-13T05:58:24;14.30;1.00
9410;DHT22;4744;52.576;13.568;2023-10-13T06:01:12;14.20;1.00
9410;DHT22;4744;52.576;13.568;2023-10-13T06:03:57;14.40;1.00
9410;DHT22;4744;52.576;13.568;2023-10-13T06:06:41;14.40;1.00
9410;DHT22;4744;52.576;13.568;2023-10-13T06:09:25;14.50;1.00
9410;DHT22;4744;52.576;13.568;2023-10-13T06:12:09;14.50;1.00
9410;DHT22;4744;52.576;13.568;2023-10-13T06:14:55;14.50;1.00
9410;DHT22;4744;52.576;13.568;2023-10-13T06:17:39;14.50;1.00
9410;DHT22;4744;52.576;13.568;2023-10-13T06:20:23;14.50;1.00
9410;DHT22;4744;52.576;13.568;2023-10-13T06:23:07;14.60;1.00
9410;DHT22;4744;52.576;13.568;2023-10-13T06:25:51;14.70;1.00
9410;DHT22;4744;52.576;13.568;2023-10-13T06:28:36;14.70;1.00
9410;DHT22;4744;52.576;13.568;2023-10-13T06:31:12;14.70;1.00
9410;DHT22;4744;52.576;13.568;2023-10-13T06:33:46;14.80;1.00
9410;DHT22;4744;52.576;13.568;2023-10-13T06:36:14;14.90;1.00
9410;DHT22;4744;52.576;13.568;2023-10-13T06:38:43;14.80;1.00
9410;DHT22;4744;52.576;13.568;2023-10-13T06:41:10;14.90;1.00
9410;DHT22;4744;52.576;13.568;2023-10-13T06:43:45;14.90;1.00
9410;DHT22;4744;52.576;13.568;2023-10-13T06:46:26;14.90;1.00
9410;DHT22;4744;52.576;13.568;2023-10-13T06:48:54;15.00;1.00
9410;DHT22;4744;52.576;13.568;2023-10-13T06:51:25;15.00;1.00
9410;DHT22;4744;52.576;13.568;2023-10-13T06:53:56;15.10;1.00
9410;DHT22;4744;52.576;13.568;2023-10-13T06:56:24;15.10;1.00
9410;DHT22;4744;52.576;13.568;2023-10-13T06:58:54;15.20;1.00
9410;DHT22;4744;52.576;13.568;2023-10-13T07:01:26;15.30;1.00
9410;DHT22;4744;52.576;13.568;2023-10-13T07:03:53;15.30;1.00
9410;DHT22;4744;52.576;13.568;2023-10-13T07:06:26;15.40;1.00
9410;DHT22;4744;52.576;13.568;2023-10-13T07:08:53;15.50;1.00
9410;DHT22;4744;52.576;13.568;2023-10-13T07:11:24;15.60;1.00
9410;DHT22;4744;52.576;13.568;2023-10-13T07:14:00;15.70;1.00
9410;DHT22;4744;52.576;13.568;2023-10-13T07:16:42;15.80;1.00
9410;DHT22;4744;52.576;13.568;2023-10-13T07:19:12;15.90;1.00
9410;DHT22;4744;52.576;13.568;2023-10-13T07:21:43;15.90;1.00
9410;DHT22;4744;52.576;13.568;2023-10-13T07:24:11;16.00;1.00
9410;DHT22;4744;52.576;13.568;2023-10-13T07:26:38;16.00;1.00
9410;DHT22;4744;52.576;13.568;2023-10-13T07:29:09;16.10;1.00
9410;DHT22;4744;52.576;13.568;2023-10-13T07:31:37;16.10;1.00
9410;DHT22;4744;52.576;13.568;2023-10-13T07:34:06;16.10;1.00
9410;DHT22;4744;52.576;13.568;2023-10-13T07:36:39;16.20;1.00
9410;DHT22;4744;52.576;13.568;2023-10-13T07:39:09;16.20;1.00
9410;DHT22;4744;52.576;13.568;2023-10-13T07:41:48;16.20;1.00
9410;DHT22;4744;52.576;13.568;2023-10-13T07:44:21;16.10;1.00
9410;DHT22;4744;52.576;13.568;2023-10-13T07:46:53;16.20;1.00
9410;DHT22;4744;52.576;13.568;2023-10-13T07:49:29;16.20;1.00
9410;DHT22;4744;52.576;13.568;2023-10-13T07:51:59;16.20;1.00
9410;DHT22;4744;52.576;13.568;2023-10-13T07:54:42;16.30;1.00
9410;DHT22;4744;52.576;13.568;2023-10-13T07:57:09;16.30;1.00
9410;DHT22;4744;52.576;13.568;2023-10-13T07:59:40;16.40;1.00
9410;DHT22;4744;52.576;13.568;2023-10-13T08:02:14;16.40;1.00
9410;DHT22;4744;52.576;13.568;2023-10-13T08:05:01;16.40;1.00
9410;DHT22;4744;52.576;13.568;2023-10-13T08:07:30;16.40;1.00
9410;DHT22;4744;52.576;13.568;2023-10-13T08:09:57;16.40;1.00
9410;DHT22;4744;52.576;13.568;2023-10-13T08:12:25;16.40;1.00
9410;DHT22;4744;52.576;13.568;2023-10-13T08:14:53;16.40;1.00
9410;DHT22;4744;52.576;13.568;2023-10-13T08:17:38;16.50;1.00
9410;DHT22;4744;52.576;13.568;2023-10-13T08:20:10;16.60;1.00
9410;DHT22;4744;52.576;13.568;2023-10-13T08:22:38;16.60;1.00
9410;DHT22;4744;52.576;13.568;2023-10-13T08:25:05;16.60;1.00
9410;DHT22;4744;52.576;13.568;2023-10-13T08:27:55;16.70;1.00
9410;DHT22;4744;52.576;13.568;2023-10-13T08:30:48;16.80;1.00
9410;DHT22;4744;52.576;13.568;2023-10-13T08:33:20;16.80;1.00
9410;DHT22;4744;52.576;13.568;2023-10-13T08:35:52;16.80;1.00
9410;DHT22;4744;52.576;13.568;2023-10-13T08:38:43;16.90;1.00
9410;DHT22;4744;52.576;13.568;2023-10-13T08:41:17;17.00;1.00
9410;DHT22;4744;52.576;13.568;2023-10-13T08:44:02;16.90;1.00
9410;DHT22;4744;52.576;13.568;2023-10-13T08:46:31;17.00;1.00
9410;DHT22;4744;52.576;13.568;2023-10-13T08:49:19;17.10;1.00
9410;DHT22;4744;52.576;13.568;2023-10-13T08:51:50;17.10;1.00
9410;DHT22;4744;52.576;13.568;2023-10-13T08:54:32;17.10;1.00
9410;DHT22;4744;52.576;13.568;2023-10-13T08:57:11;17.10;1.00
9410;DHT22;4744;52.576;13.568;2023-10-13T08:59:58;17.20;1.00
9410;DHT22;4744;52.576;13.568;2023-10-13T09:02:45;17.20;1.00
9410;DHT22;4744;52.576;13.568;2023-10-13T09:05:26;17.30;1.00
9410;DHT22;4744;52.576;13.568;2023-10-13T09:08:07;17.20;1.00
9410;DHT22;4744;52.576;13.568;2023-10-13T09:10:35;17.20;1.00
9410;DHT22;4744;52.576;13.568;2023-10-13T09:13:10;17.30;1.00
9410;DHT22;4744;52.576;13.568;2023-10-13T09:15:44;17.30;1.00
9410;DHT22;4744;52.576;13.568;2023-10-13T09:18:26;17.40;1.00
9410;DHT22;4744;52.576;13.568;2023-10-13T09:21:09;17.40;1.00
9410;DHT22;4744;52.576;13.568;2023-10-13T09:23:54;17.40;1.00
9410;DHT22;4744;52.576;13.568;2023-10-13T09:26:41;17.50;1.00
9410;DHT22;4744;52.576;13.568;2023-10-13T09:29:15;17.40;1.00
9410;DHT22;4744;52.576;13.568;2023-10-13T09:31:45;17.50;1.00
9410;DHT22;4744;52.576;13.568;2023-10-13T09:34:19;17.50;1.00
9410;DHT22;4744;52.576;13.568;2023-10-13T09:36:49;17.50;1.00
9410;DHT22;4744;52.576;13.568;2023-10-13T09:39:24;17.50;1.00
9410;DHT22;4744;52.576;13.568;2023-10-13T09:42:06;17.50;1.00
9410;DHT22;4744;52.576;13.568;2023-10-13T09:44:36;17.60;1.00
9410;DHT22;4744;52.576;13.568;2023-10-13T09:47:09;17.60;1.00
9410;DHT22;4744;52.576;13.568;2023-10-13T09:49:44;17.60;1.00
9410;DHT22;4744;52.576;13.568;2023-10-13T09:52:18;17.60;1.00
9410;DHT22;4744;52.576;13.568;2023-10-13T09:55:04;17.70;1.00
9410;DHT22;4744;52.576;13.568;2023-10-13T09:57:37;17.70;1.00
9410;DHT22;4744;52.576;13.568;2023-10-13T10:00:12;17.70;1.00
9410;DHT22;4744;52.576;13.568;2023-10-13T10:03:12;17.70;1.00
9410;DHT22;4744;52.576;13.568;2023-10-13T10:05:57;17.70;1.00
9410;DHT22;4744;52.576;13.568;2023-10-13T10:08:33;17.80;1.00
9410;DHT22;4744;52.576;13.568;2023-10-13T10:11:07;17.80;1.00
9410;DHT22;4744;52.576;13.568;2023-10-13T10:13:47;17.70;1.00
9410;DHT22;4744;52.576;13.568;2023-10-13T10:16:27;17.70;1.00
9410;DHT22;4744;52.576;13.568;2023-10-13T10:19:02;17.70;1.00
9410;DHT22;4744;52.576;13.568;2023-10-13T10:21:33;17.70;1.00
9410;DHT22;4744;52.576;13.568;2023-10-13T10:24:02;17.70;1.00
9410;DHT22;4744;52.576;13.568;2023-10-13T10:26:50;17.70;1.00
9410;DHT22;4744;52.576;13.568;2023-10-13T10:29:18;17.70;1.00
9410;DHT22;4744;52.576;13.568;2023-10-13T10:31:45;17.70;1.00
9410;DHT22;4744;52.576;13.568;2023-10-13T10:34:13;17.60;1.00
9410;DHT22;4744;52.576;13.568;2023-10-13T10:36:46;17.60;1.00
9410;DHT22;4744;52.576;13.568;2023-10-13T10:39:15;17.70;1.00
9410;DHT22;4744;52.576;13.568;2023-10-13T10:41:43;17.80;1.00
9410;DHT22;4744;52.576;13.568;2023-10-13T10:44:18;17.70;1.00
9410;DHT22;4744;52.576;13.568;2023-10-13T10:47:09;17.70;1.00
9410;DHT22;4744;52.576;13.568;2023-10-13T10:49:37;17.70;1.00
9410;DHT22;4744;52.576;13.568;2023-10-13T10:52:09;17.70;1.00
9410;DHT22;4744;52.576;13.568;2023-10-13T10:54:45;17.70;1.00
9410;DHT22;4744;52.576;13.568;2023-10-13T10:57:17;17.70;1.00
9410;DHT22;4744;52.576;13.568;2023-10-13T10:59:44;17.70;1.00
9410;DHT22;4744;52.576;13.568;2023-10-13T11:02:11;17.70;1.00
9410;DHT22;4744;52.576;13.568;2023-10-13T11:04:44;17.60;1.00
9410;DHT22;4744;52.576;13.568;2023-10-13T11:07:21;17.60;1.00
9410;DHT22;4744;52.576;13.568;2023-10-13T11:09:50;17.60;1.00
9410;DHT22;4744;52.576;13.568;2023-10-13T11:12:22;17.60;1.00
9410;DHT22;4744;52.576;13.568;2023-10-13T11:15:02;17.70;1.00
9410;DHT22;4744;52.576;13.568;2023-10-13T11:17:30;17.70;1.00
9410;DHT22;4744;52.576;13.568;2023-10-13T11:20:11;17.80;1.00
9410;DHT22;4744;52.576;13.568;2023-10-13T11:22:45;17.80;1.00
9410;DHT22;4744;52.576;13.568;2023-10-13T11:25:22;17.80;1.00
9410;DHT22;4744;52.576;13.568;2023-10-13T11:27:55;17.80;1.00
9410;DHT22;4744;52.576;13.568;2023-10-13T11:30:26;17.90;1.00
9410;DHT22;4744;52.576;13.568;2023-10-13T11:32:58;17.90;1.00
9410;DHT22;4744;52.576;13.568;2023-10-13T11:35:25;17.90;1.00
9410;DHT22;4744;52.576;13.568;2023-10-13T11:38:12;18.00;1.00
9410;DHT22;4744;52.576;13.568;2023-10-13T11:40:41;18.00;1.00
9410;DHT22;4744;52.576;13.568;2023-10-13T11:43:32;18.00;1.00
9410;DHT22;4744;52.576;13.568;2023-10-13T11:46:05;18.10;1.00
9410;DHT22;4744;52.576;13.568;2023-10-13T11:48:41;18.10;1.00
9410;DHT22;4744;52.576;13.568;2023-10-13T11:51:09;18.10;1.00
9410;DHT22;4744;52.576;13.568;2023-10-13T11:53:43;18.20;1.00
9410;DHT22;4744;52.576;13.568;2023-10-13T11:56:11;18.20;1.00
9410;DHT22;4744;52.576;13.568;2023-10-13T11:58:38;18.20;1.00
9410;DHT22;4744;52.576;13.568;2023-10-13T12:01:06;18.30;1.00
9410;DHT22;4744;52.576;13.568;2023-10-13T12:03:47;18.30;1.00
9410;DHT22;4744;52.576;13.568;2023-10-13T12:06:43;18.30;1.00
9410;DHT22;4744;52.576;13.568;2023-10-13T12:09:25;18.40;1.00
9410;DHT22;4744;52.576;13.568;2023-10-13T12:12:08;18.40;1.00
9410;DHT22;4744;52.576;13.568;2023-10-13T12:14:35;18.40;1.00
9410;DHT22;4744;52.576;13.568;2023-10-13T12:17:03;18.40;1.00
9410;DHT22;4744;52.576;13.568;2023-10-13T12:19:36;18.40;1.00
9410;DHT22;4744;52.576;13.568;2023-10-13T12:22:04;18.40;1.00
9410;DHT22;4744;52.576;13.568;2023-10-13T12:24:34;18.50;1.00
9410;DHT22;4744;52.576;13.568;2023-10-13T12:27:09;18.50;1.00
9410;DHT22;4744;52.576;13.568;2023-10-13T12:29:46;18.50;1.00
9410;DHT22;4744;52.576;13.568;2023-10-13T12:32:14;18.70;1.00
9410;DHT22;4744;52.576;13.568;2023-10-13T12:34:46;18.70;1.00
9410;DHT22;4744;52.576;13.568;2023-10-13T12:37:26;18.80;1.00
9410;DHT22;4744;52.576;13.568;2023-10-13T12:40:18;18.80;1.00
9410;DHT22;4744;52.576;13.568;2023-10-13T12:43:04;18.80;1.00
9410;DHT22;4744;52.576;13.568;2023-10-13T12:45:49;18.90;1.00
9410;DHT22;4744;52.576;13.568;2023-10-13T12:48:37;18.90;1.00
9410;DHT22;4744;52.576;13.568;2023-10-13T12:51:29;18.90;1.00
9410;DHT22;4744;52.576;13.568;2023-10-13T12:54:16;19.10;1.00
9410;DHT22;4744;52.576;13.568;2023-10-13T12:56:45;19.10;1.00
9410;DHT22;4744;52.576;13.568;2023-10-13T12:59:14;19.20;1.00
9410;DHT22;4744;52.576;13.568;2023-10-13T13:01:41;19.20;1.00
9410;DHT22;4744;52.576;13.568;2023-10-13T13:04:09;19.20;1.00
9410;DHT22;4744;52.576;13.568;2023-10-13T13:06:44;19.20;1.00
9410;DHT22;4744;52.576;13.568;2023-10-13T13:09:11;19.30;1.00
9410;DHT22;4744;52.576;13.568;2023-10-13T13:11:38;19.40;1.00
9410;DHT22;4744;52.576;13.568;2023-10-13T13:14:05;19.40;1.00
9410;DHT22;4744;52.576;13.568;2023-10-13T13:16:38;19.40;1.00
9410;DHT22;4744;52.576;13.568;2023-10-13T13:19:05;19.50;1.00
9410;DHT22;4744;52.576;13.568;2023-10-13T13:21:37;19.50;1.00
9410;DHT22;4744;52.576;13.568;2023-10-13T13:24:04;19.60;1.00
9410;DHT22;4744;52.576;13.568;2023-10-13T13:26:36;19.60;1.00
9410;DHT22;4744;52.576;13.568;2023-10-13T13:29:06;19.70;1.00
9410;DHT22;4744;52.576;13.568;2023-10-13T13:31:35;19.70;1.00
9410;DHT22;4744;52.576;13.568;2023-10-13T13:34:08;19.70;1.00
9410;DHT22;4744;52.576;13.568;2023-10-13T13:36:36;19.80;1.00
9410;DHT22;4744;52.576;13.568;2023-10-13T13:39:04;19.90;1.00
9410;DHT22;4744;52.576;13.568;2023-10-13T13:41:31;20.00;1.00
9410;DHT22;4744;52.576;13.568;2023-10-13T13:43:59;20.00;1.00
9410;DHT22;4744;52.576;13.568;2023-10-13T13:46:39;20.10;1.00
9410;DHT22;4744;52.576;13.568;2023-10-13T13:49:09;20.10;1.00
9410;DHT22;4744;52.576;13.568;2023-10-13T13:51:44;20.10;1.00
9410;DHT22;4744;52.576;13.568;2023-10-13T13:54:18;20.10;1.00
9410;DHT22;4744;52.576;13.568;2023-10-13T13:56:46;20.20;1.00
9410;DHT22;4744;52.576;13.568;2023-10-13T13:59:13;20.20;1.00
9410;DHT22;4744;52.576;13.568;2023-10-13T14:01:45;20.30;1.00
9410;DHT22;4744;52.576;13.568;2023-10-13T14:04:14;20.30;1.00
9410;DHT22;4744;52.576;13.568;2023-10-13T14:06:43;20.40;1.00
9410;DHT22;4744;52.576;13.568;2023-10-13T14:09:11;20.40;1.00
9410;DHT22;4744;52.576;13.568;2023-10-13T14:11:48;20.50;1.00
9410;DHT22;4744;52.576;13.568;2023-10-13T14:14:32;20.60;1.00
9410;DHT22;4744;52.576;13.568;2023-10-13T14:17:00;20.60;1.00
9410;DHT22;4744;52.576;13.568;2023-10-13T14:19:35;20.60;1.00
9410;DHT22;4744;52.576;13.568;2023-10-13T14:22:06;20.70;1.00
9410;DHT22;4744;52.576;13.568;2023-10-13T14:24:34;20.70;1.00
9410;DHT22;4744;52.576;13.568;2023-10-13T14:27:09;20.90;1.00
9410;DHT22;4744;52.576;13.568;2023-10-13T14:29:38;20.90;1.00
9410;DHT22;4744;52.576;13.568;2023-10-13T14:32:07;20.90;1.00
9410;DHT22;4744;52.576;13.568;2023-10-13T14:34:39;20.90;1.00
9410;DHT22;4744;52.576;13.568;2023-10-13T14:37:06;21.00;1.00
9410;DHT22;4744;52.576;13.568;2023-10-13T14:39:33;21.10;1.00
9410;DHT22;4744;52.576;13.568;2023-10-13T14:42:03;21.10;1.00
9410;DHT22;4744;52.576;13.568;2023-10-13T14:44:32;21.10;1.00
9410;DHT22;4744;52.576;13.568;2023-10-13T14:46:59;21.10;1.00
9410;DHT22;4744;52.576;13.568;2023-10-13T14:49:26;21.20;1.00
9410;DHT22;4744;52.576;13.568;2023-10-13T14:51:54;21.20;1.00
9410;DHT22;4744;52.576;13.568;2023-10-13T14:54:21;21.20;1.00
9410;DHT22;4744;52.576;13.568;2023-10-13T14:56:59;21.20;1.00
9410;DHT22;4744;52.576;13.568;2023-10-13T14:59:26;21.20;1.00
9410;DHT22;4744;52.576;13.568;2023-10-13T15:01:59;21.10;1.00
9410;DHT22;4744;52.576;13.568;2023-10-13T15:04:26;21.10;1.00
9410;DHT22;4744;52.576;13.568;2023-10-13T15:06:55;21.00;1.00
9410;DHT22;4744;52.576;13.568;2023-10-13T15:09:23;21.00;1.00
9410;DHT22;4744;52.576;13.568;2023-10-13T15:11:50;21.00;1.00
9410;DHT22;4744;52.576;13.568;2023-10-13T15:14:19;21.00;1.00
9410;DHT22;4744;52.576;13.568;2023-10-13T15:16:48;20.90;1.00
9410;DHT22;4744;52.576;13.568;2023-10-13T15:19:15;20.90;1.00
9410;DHT22;4744;52.576;13.568;2023-10-13T15:21:43;20.90;1.00
9410;DHT22;4744;52.576;13.568;2023-10-13T15:24:16;20.80;1.00
9410;DHT22;4744;52.576;13.568;2023-10-13T15:26:43;20.80;1.00
9410;DHT22;4744;52.576;13.568;2023-10-13T15:29:14;20.80;1.00
9410;DHT22;4744;52.576;13.568;2023-10-13T15:31:43;20.80;1.00
9410;DHT22;4744;52.576;13.568;2023-10-13T15:34:20;20.70;1.00
9410;DHT22;4744;52.576;13.568;2023-10-13T15:36:46;20.80;1.00
9410;DHT22;4744;52.576;13.568;2023-10-13T15:39:12;20.70;1.00
9410;DHT22;4744;52.576;13.568;2023-10-13T15:41:42;20.80;1.00
9410;DHT22;4744;52.576;13.568;2023-10-13T15:44:10;20.80;1.00
9410;DHT22;4744;52.576;13.568;2023-10-13T15:46:39;20.80;1.00
9410;DHT22;4744;52.576;13.568;2023-10-13T15:49:06;20.80;1.00
9410;DHT22;4744;52.576;13.568;2023-10-13T15:51:37;20.80;1.00
9410;DHT22;4744;52.576;13.568;2023-10-13T15:54:05;20.80;1.00
9410;DHT22;4744;52.576;13.568;2023-10-13T15:56:36;20.80;1.00
9410;DHT22;4744;52.576;13.568;2023-10-13T15:59:06;20.70;1.00
9410;DHT22;4744;52.576;13.568;2023-10-13T16:01:33;20.70;1.00
9410;DHT22;4744;52.576;13.568;2023-10-13T16:04:00;20.70;1.00
9410;DHT22;4744;52.576;13.568;2023-10-13T16:06:36;20.70;1.00
9410;DHT22;4744;52.576;13.568;2023-10-13T16:09:03;20.70;1.00
9410;DHT22;4744;52.576;13.568;2023-10-13T16:11:32;20.70;1.00
9410;DHT22;4744;52.576;13.568;2023-10-13T16:13:59;20.70;1.00
9410;DHT22;4744;52.576;13.568;2023-10-13T16:16:27;20.80;1.00
9410;DHT22;4744;52.576;13.568;2023-10-13T16:18:54;20.70;1.00
9410;DHT22;4744;52.576;13.568;2023-10-13T16:21:21;20.70;1.00
9410;DHT22;4744;52.576;13.568;2023-10-13T16:23:49;20.70;1.00
9410;DHT22;4744;52.576;13.568;2023-10-13T16:26:16;20.70;1.00
9410;DHT22;4744;52.576;13.568;2023-10-13T16:28:47;20.70;1.00
9410;DHT22;4744;52.576;13.568;2023-10-13T16:31:14;20.70;1.00
9410;DHT22;4744;52.576;13.568;2023-10-13T16:33:42;20.70;1.00
9410;DHT22;4744;52.576;13.568;2023-10-13T16:36:10;20.70;1.00
9410;DHT22;4744;52.576;13.568;2023-10-13T16:38:39;20.60;1.00
9410;DHT22;4744;52.576;13.568;2023-10-13T16:41:06;20.70;1.00
9410;DHT22;4744;52.576;13.568;2023-10-13T16:43:35;20.70;1.00